Time;durP1;ratioP1;P1;durP2;ratioP2;P2;SDS_P1;SDS_P2;PMS_P1;PMS_P2;Temp;Humidity;BMP_temperature;BMP_pressure;BME280_temperature;BME280_humidity;BME280_pressure;Samples;Min_cycle;Max_cycle;Signal;HPM_P1;HPM_P2
2023/07/14 00:01:22;;;;;;;11.65;8.15;;;;;;;16.01;100.00;101680.72;4954886;28;20110;-79
2023/07/14 00:03:48;;;;;;;10.38;8.65;;;;;;;15.96;100.00;101682.88;4953585;29;20463;-79
2023/07/14 00:06:14;;;;;;;11.40;8.77;;;;;;;15.93;100.00;101676.00;4941446;29;20027;-78
2023/07/14 00:08:40;;;;;;;10.43;9.02;;;;;;;15.94;100.00;101675.03;4951470;28;20038;-79
2023/07/14 00:11:17;;;;;;;9.60;8.57;;;;;;;15.95;100.00;101681.19;4948088;29;20047;-78
2023/07/14 00:13:43;;;;;;;9.88;8.88;;;;;;;15.93;100.00;101667.22;4936455;29;20027;-79
2023/07/14 00:16:15;;;;;;;11.32;9.43;;;;;;;15.89;100.00;101673.75;4953855;29;20027;-79
2023/07/14 00:18:40;;;;;;;10.32;8.73;;;;;;;15.92;100.00;101676.16;4954049;29;20496;-79
2023/07/14 00:21:15;;;;;;;11.98;9.43;;;;;;;15.88;100.00;101666.75;4951930;29;20033;-74
2023/07/14 00:23:40;;;;;;;10.15;8.48;;;;;;;15.93;100.00;101667.22;4951614;29;20087;-79
2023/07/14 00:26:15;;;;;;;10.25;8.15;;;;;;;15.93;100.00;101661.91;4949727;29;20036;-79
2023/07/14 00:28:44;;;;;;;11.35;8.70;;;;;;;15.90;100.00;101667.47;4943663;29;20031;-75
2023/07/14 00:31:12;;;;;;;9.85;8.85;;;;;;;15.95;100.00;101667.91;4951842;29;20455;-79
2023/07/14 00:33:38;;;;;;;10.35;9.02;;;;;;;15.94;100.00;101658.28;4953210;29;20074;-79
2023/07/14 00:36:04;;;;;;;12.27;9.57;;;;;;;15.93;100.00;101664.56;4919826;29;20062;-74
2023/07/14 00:38:29;;;;;;;9.95;8.77;;;;;;;15.90;100.00;101670.13;4943469;29;20462;-74
2023/07/14 00:40:55;;;;;;;13.27;9.45;;;;;;;15.86;100.00;101660.72;4953145;29;20027;-79
2023/07/14 00:43:24;;;;;;;11.55;9.10;;;;;;;15.89;100.00;101665.78;4936356;29;20058;-78
2023/07/14 00:45:52;;;;;;;9.95;9.02;;;;;;;15.86;100.00;101653.59;4952864;28;20488;-74
2023/07/14 00:48:24;;;;;;;12.57;9.15;;;;;;;15.82;100.00;101648.69;4934651;29;20039;-79
2023/07/14 00:51:19;;;;;;;11.95;9.60;;;;;;;15.86;100.00;101663.38;4934703;29;20557;-80
2023/07/14 00:53:44;;;;;;;10.20;9.15;;;;;;;15.82;100.00;101654.84;4932179;29;20520;-79
2023/07/14 00:56:10;;;;;;;10.82;8.68;;;;;;;15.81;100.00;101641.69;4945569;29;20084;-79
2023/07/14 00:58:45;;;;;;;10.27;8.95;;;;;;;15.81;100.00;101657.63;4955063;29;20047;-79
2023/07/14 01:01:22;;;;;;;12.68;9.30;;;;;;;15.81;100.00;101657.63;4953597;29;20164;-79
2023/07/14 01:03:59;;;;;;;10.95;9.43;;;;;;;15.82;100.00;101651.34;4951272;29;20027;-79
2023/07/14 01:06:29;;;;;;;10.65;9.23;;;;;;;15.81;100.00;101654.97;4936039;29;20066;-78
2023/07/14 01:09:08;;;;;;;11.82;9.70;;;;;;;15.78;100.00;101652.56;4946040;29;20114;-78
2023/07/14 01:11:49;;;;;;;11.45;10.05;;;;;;;15.74;100.00;101656.44;4949930;29;20051;-79
2023/07/14 01:14:24;;;;;;;11.43;9.70;;;;;;;15.73;100.00;101657.41;4953523;29;20106;-79
2023/07/14 01:16:53;;;;;;;9.65;8.68;;;;;;;15.79;100.00;101648.94;4953173;29;20034;-79
2023/07/14 01:19:39;;;;;;;10.73;8.52;;;;;;;15.82;100.00;101648.69;4935287;29;20102;-74
2023/07/14 01:22:17;;;;;;;11.32;9.57;;;;;;;15.77;100.00;101641.13;4933492;29;20057;-78
2023/07/14 01:25:21;;;;;;;9.93;8.90;;;;;;;15.79;100.00;101638.34;4952198;29;20365;-79
2023/07/14 01:27:47;;;;;;;13.25;9.70;;;;;;;15.76;100.00;101641.25;4949375;29;20046;-74
2023/07/14 01:30:15;;;;;;;10.60;9.30;;;;;;;15.80;100.00;101640.00;4949938;29;20038;-79
2023/07/14 01:32:48;;;;;;;11.70;9.77;;;;;;;15.80;100.00;101632.91;4939855;29;20024;-74
2023/07/14 01:35:16;;;;;;;11.25;9.25;;;;;;;15.81;100.00;101641.69;4950169;29;20023;-78
2023/07/14 01:37:42;;;;;;;12.52;9.82;;;;;;;15.80;100.00;101640.84;4950147;29;20527;-78
2023/07/14 01:40:14;;;;;;;10.85;9.27;;;;;;;15.81;100.00;101639.03;4930201;29;20027;-80
2023/07/14 01:42:55;;;;;;;12.13;9.73;;;;;;;15.80;100.00;101629.41;4951179;29;20403;-78
2023/07/14 01:45:22;;;;;;;10.88;9.43;;;;;;;15.79;100.00;101623.25;4950653;29;20035;-79
2023/07/14 01:47:52;;;;;;;10.65;9.23;;;;;;;15.77;100.00;101617.22;4935383;29;20388;-79
2023/07/14 01:50:21;;;;;;;11.40;9.75;;;;;;;15.75;100.00;101628.94;4951139;29;20023;-74
2023/07/14 01:52:50;;;;;;;12.40;10.00;;;;;;;15.68;100.00;101620.66;4952500;29;20106;-80
2023/07/14 01:55:19;;;;;;;11.55;10.35;;;;;;;15.71;100.00;101627.53;4951840;29;20023;-75
2023/07/14 01:57:47;;;;;;;12.30;9.65;;;;;;;15.70;100.00;101628.50;4951790;28;20387;-80
2023/07/14 02:00:13;;;;;;;11.32;10.13;;;;;;;15.69;100.00;101627.66;4951652;29;20329;-80
2023/07/14 02:02:40;;;;;;;12.65;10.20;;;;;;;15.67;100.00;101624.28;4952915;29;20042;-79
2023/07/14 02:05:12;;;;;;;11.73;10.00;;;;;;;15.62;100.00;101624.66;4935838;29;20023;-80
2023/07/14 02:07:38;;;;;;;16.38;10.45;;;;;;;15.59;100.00;101611.63;4952491;29;20046;-80
2023/07/14 02:10:04;;;;;;;11.65;10.13;;;;;;;15.57;100.00;101618.84;4944213;29;20036;-75
2023/07/14 02:12:31;;;;;;;11.30;9.93;;;;;;;15.52;100.00;101622.84;4951692;29;20107;-79
2023/07/14 02:15:02;;;;;;;11.38;9.43;;;;;;;15.49;100.00;101615.97;4952277;29;20102;-75
2023/07/14 02:17:31;;;;;;;12.88;10.35;;;;;;;15.46;100.00;101616.25;4934423;29;20041;-75
2023/07/14 02:19:58;;;;;;;11.88;10.68;;;;;;;15.49;100.00;101615.97;4950970;29;20384;-80
2023/07/14 02:22:24;;;;;;;12.88;10.38;;;;;;;15.48;100.00;101614.31;4933912;29;20023;-74
2023/07/14 02:24:52;;;;;;;12.80;10.80;;;;;;;15.43;100.00;101608.53;4951168;29;20480;-75
2023/07/14 02:27:18;;;;;;;11.85;10.45;;;;;;;15.48;100.00;101609.00;4950230;29;20031;-79
2023/07/14 02:29:45;;;;;;;11.80;10.25;;;;;;;15.46;100.00;101610.94;4945850;29;20038;-78
2023/07/14 02:32:16;;;;;;;11.80;10.60;;;;;;;15.40;100.00;101606.13;4951430;29;20031;-80
2023/07/14 02:34:51;;;;;;;11.68;10.52;;;;;;;15.33;100.00;101610.28;4949765;29;20138;-79
2023/07/14 02:37:39;;;;;;;12.20;10.30;;;;;;;15.33;100.00;101605.81;4949116;29;20027;-78
2023/07/14 02:40:11;;;;;;;13.10;9.63;;;;;;;15.28;100.00;101612.47;4952952;29;20030;-75
2023/07/14 02:42:41;;;;;;;12.93;10.35;;;;;;;15.20;100.00;101620.16;4932831;29;20027;-78
2023/07/14 02:45:10;;;;;;;11.98;10.20;;;;;;;15.23;100.00;101614.63;4951051;29;20038;-79
2023/07/14 02:47:40;;;;;;;12.13;10.02;;;;;;;15.20;100.00;101618.34;4950585;29;20027;-79
2023/07/14 02:50:06;;;;;;;13.93;9.88;;;;;;;15.17;100.00;101615.13;4934302;29;20027;-79
2023/07/14 02:52:31;;;;;;;11.75;10.05;;;;;;;15.21;100.00;101611.25;4951739;29;20035;-81
2023/07/14 02:54:56;;;;;;;14.30;9.90;;;;;;;15.21;100.00;101606.81;4935344;29;20171;-75
2023/07/14 02:57:22;;;;;;;12.55;10.77;;;;;;;15.19;100.00;101607.88;4950688;29;20505;-79
2023/07/14 02:59:47;;;;;;;12.10;10.90;;;;;;;15.09;100.00;101601.66;4951495;28;20027;-80
2023/07/14 03:02:14;;;;;;;11.50;10.32;;;;;;;15.10;100.00;101608.63;4951831;28;20051;-80
2023/07/14 03:04:40;;;;;;;13.05;10.85;;;;;;;15.12;100.00;101604.03;4953102;29;20043;-80
2023/07/14 03:07:06;;;;;;;12.35;11.02;;;;;;;15.10;100.00;101603.31;4956416;29;20023;-75
2023/07/14 03:09:32;;;;;;;12.35;10.45;;;;;;;15.09;100.00;101612.25;4954415;28;20544;-80
2023/07/14 03:11:58;;;;;;;11.95;10.02;;;;;;;15.09;100.00;101607.78;4964140;29;20051;-79
2023/07/14 03:14:24;;;;;;;12.43;10.23;;;;;;;15.09;100.00;101612.25;4965094;29;20139;-78
2023/07/14 03:16:50;;;;;;;12.40;10.27;;;;;;;15.09;100.00;101599.00;4960855;29;20038;-75
2023/07/14 03:19:15;;;;;;;11.50;10.15;;;;;;;15.10;100.00;101598.03;4960292;29;20031;-75
2023/07/14 03:21:43;;;;;;;10.30;9.40;;;;;;;15.14;100.00;101596.81;4960940;29;20046;-79
2023/07/14 03:24:09;;;;;;;11.00;9.65;;;;;;;15.16;100.00;101594.88;4963018;29;20066;-79
2023/07/14 03:26:35;;;;;;;11.05;9.65;;;;;;;15.20;100.00;101594.50;4961978;29;20023;-79
2023/07/14 03:29:01;;;;;;;10.68;9.40;;;;;;;15.21;100.00;101598.00;4953721;29;20043;-75
2023/07/14 03:31:27;;;;;;;9.73;8.73;;;;;;;15.27;100.00;101597.50;4953496;29;20648;-80
2023/07/14 03:33:52;;;;;;;11.43;9.07;;;;;;;15.24;100.00;101587.16;4961597;29;20090;-80
2023/07/14 03:36:23;;;;;;;10.80;8.48;;;;;;;15.28;100.00;101588.59;4962178;29;20027;-74
2023/07/14 03:39:23;;;;;;;11.35;9.00;;;;;;;15.30;100.00;101584.00;4951830;29;20023;-74
2023/07/14 03:41:49;;;;;;;9.85;8.95;;;;;;;15.28;100.00;101583.28;4944909;29;20178;-80
2023/07/14 03:44:15;;;;;;;10.13;8.30;;;;;;;15.26;100.00;101572.81;4946073;29;20023;-78
2023/07/14 03:46:43;;;;;;;10.98;8.75;;;;;;;15.22;100.00;101575.84;4950827;29;20034;-73
2023/07/14 03:49:09;;;;;;;8.95;7.82;;;;;;;15.22;100.00;101573.19;4961275;29;20031;-78
2023/07/14 03:51:35;;;;;;;11.90;8.52;;;;;;;15.23;100.00;101577.53;4960592;29;20038;-80
2023/07/14 03:54:00;;;;;;;9.45;7.53;;;;;;;15.23;100.00;101577.53;4953289;29;20646;-78
2023/07/14 03:56:27;;;;;;;8.77;7.50;;;;;;;15.21;100.00;101568.81;4945245;29;20028;-74
2023/07/14 03:58:52;;;;;;;9.25;7.30;;;;;;;15.21;100.00;101579.44;4933905;29;20495;-74
2023/07/14 04:01:18;;;;;;;9.63;7.45;;;;;;;15.18;100.00;101569.06;4917981;29;20040;-78
2023/07/14 04:03:47;;;;;;;9.13;7.28;;;;;;;15.20;100.00;101570.63;4939913;29;20083;-78
2023/07/14 04:06:14;;;;;;;9.52;6.97;;;;;;;15.19;100.00;101570.75;4940346;29;20119;-78
2023/07/14 04:08:43;;;;;;;7.93;6.85;;;;;;;15.21;100.00;101568.81;4952918;29;20138;-78
2023/07/14 04:11:09;;;;;;;8.13;7.22;;;;;;;15.28;100.00;101570.03;4946687;29;20106;-74
2023/07/14 04:13:35;;;;;;;8.85;6.80;;;;;;;15.43;100.00;101574.06;4950498;29;20027;-78
2023/07/14 04:16:03;;;;;;;8.23;6.50;;;;;;;15.66;100.00;101569.53;4946294;29;20407;-80
2023/07/14 04:18:30;;;;;;;8.35;6.57;;;;;;;15.65;100.00;101568.69;4953964;29;20027;-79
2023/07/14 04:21:06;;;;;;;7.10;6.13;;;;;;;15.61;100.00;101567.28;4952245;28;20027;-79
2023/07/14 04:23:33;;;;;;;10.88;6.30;;;;;;;15.53;100.00;101555.56;4953881;29;20015;-79
2023/07/14 04:25:59;;;;;;;9.05;6.10;;;;;;;15.56;100.00;101569.41;4953547;29;20034;-79
2023/07/14 04:28:25;;;;;;;9.65;5.82;;;;;;;15.55;100.00;101556.28;4951334;29;20618;-78
2023/07/14 04:30:55;;;;;;;8.73;6.22;;;;;;;15.52;100.00;101578.59;4950713;29;20114;-79
2023/07/14 04:33:21;;;;;;;7.22;6.03;;;;;;;15.55;100.00;101564.22;4953029;29;20032;-79
2023/07/14 04:35:48;;;;;;;8.55;6.28;;;;;;;15.43;100.00;101563.44;4953594;29;20031;-80
2023/07/14 04:38:14;;;;;;;9.52;6.15;;;;;;;15.40;100.00;101563.72;4953284;29;20038;-79
2023/07/14 04:40:43;;;;;;;8.68;5.75;;;;;;;15.43;100.00;101573.22;4953079;29;20847;-80
2023/07/14 04:43:09;;;;;;;8.05;5.63;;;;;;;15.41;100.00;101565.38;4953431;29;20101;-79
2023/07/14 04:45:39;;;;;;;7.05;5.15;;;;;;;15.41;100.00;101565.38;4950528;29;20033;-74
2023/07/14 04:48:06;;;;;;;12.05;6.32;;;;;;;15.41;100.00;101570.69;4932367;29;20483;-77
2023/07/14 04:50:34;;;;;;;9.63;6.13;;;;;;;15.32;100.00;101566.16;4933990;29;20024;-74
2023/07/14 04:52:59;;;;;;;8.68;6.32;;;;;;;15.33;100.00;101568.69;4933892;29;20087;-74
2023/07/14 04:55:27;;;;;;;9.10;6.03;;;;;;;15.29;100.00;101574.38;4940804;29;20031;-79
2023/07/14 04:57:52;;;;;;;9.18;6.30;;;;;;;15.25;100.00;101583.53;4951957;29;20023;-78
2023/07/14 05:00:18;;;;;;;8.18;5.85;;;;;;;15.29;100.00;101582.31;4951645;29;20457;-74
2023/07/14 05:02:44;;;;;;;7.97;5.85;;;;;;;15.22;100.00;101575.84;4939471;29;20024;-79
2023/07/14 05:05:19;;;;;;;9.48;6.10;;;;;;;15.20;100.00;101577.75;4926979;29;20023;-79
2023/07/14 05:07:44;;;;;;;9.65;5.50;;;;;;;15.28;100.00;101572.69;4950582;29;20130;-74
2023/07/14 05:10:10;;;;;;;7.93;5.70;;;;;;;15.33;100.00;101562.53;4949514;29;20134;-78
2023/07/14 05:12:36;;;;;;;7.78;5.93;;;;;;;15.34;100.00;101561.56;4935878;29;20031;-79
2023/07/14 05:15:06;;;;;;;9.68;5.78;;;;;;;15.41;100.00;101561.91;4952324;29;20114;-79
2023/07/14 05:17:34;;;;;;;9.75;5.90;;;;;;;15.47;100.00;101553.44;4951534;29;20039;-74
2023/07/14 05:20:00;;;;;;;8.35;5.30;;;;;;;15.45;100.00;101552.72;4949970;29;20086;-79
2023/07/14 05:22:29;;;;;;;9.63;6.07;;;;;;;15.48;100.00;101550.66;4951616;29;20027;-79
2023/07/14 05:24:54;;;;;;;10.70;6.28;;;;;;;15.60;100.00;101554.94;4951348;29;20058;-80
2023/07/14 05:27:21;;;;;;;9.75;6.10;;;;;;;15.60;100.00;101546.16;4951713;29;20058;-79
2023/07/14 05:29:47;;;;;;;8.23;5.97;;;;;;;15.70;100.00;101560.34;4951060;29;20035;-80
2023/07/14 05:32:12;;;;;;;12.20;5.40;;;;;;;15.73;99.32;101552.13;4951545;28;20054;-80
2023/07/14 05:34:38;;;;;;;8.68;5.97;;;;;;;15.74;99.27;101561.78;4952265;29;20383;-79
2023/07/14 05:37:04;;;;;;;8.20;5.70;;;;;;;15.74;98.71;101555.63;4948830;29;20480;-79
2023/07/14 05:39:30;;;;;;;9.82;5.28;;;;;;;15.85;98.83;101552.91;4951762;29;20038;-80
2023/07/14 05:41:58;;;;;;;8.30;5.78;;;;;;;15.91;98.33;101547.91;4951749;29;20023;-79
2023/07/14 05:44:24;;;;;;;7.43;5.18;;;;;;;15.93;97.79;101545.13;4951208;29;20031;-74
2023/07/14 05:46:50;;;;;;;6.60;5.53;;;;;;;16.00;97.31;101543.63;4951846;29;20034;-78
2023/07/14 05:49:16;;;;;;;9.23;5.60;;;;;;;16.04;97.05;101547.72;4934582;29;20503;-79
2023/07/14 05:51:45;;;;;;;9.48;5.35;;;;;;;15.97;95.61;101547.38;4951144;29;20110;-79
2023/07/14 05:54:11;;;;;;;9.18;5.47;;;;;;;16.07;95.00;101550.09;4949334;29;20065;-79
2023/07/14 05:56:36;;;;;;;8.27;4.80;;;;;;;16.09;94.50;101547.31;4953965;28;20575;-79
2023/07/14 05:59:03;;;;;;;7.53;5.05;;;;;;;16.16;94.79;101546.66;4950999;29;20078;-79
2023/07/14 06:01:28;;;;;;;13.18;5.00;;;;;;;16.26;93.24;101547.53;4951391;29;20042;-79
2023/07/14 06:03:53;;;;;;;8.70;5.13;;;;;;;16.34;93.19;101548.66;4934396;29;20476;-79
2023/07/14 06:06:19;;;;;;;8.38;4.60;;;;;;;16.44;92.37;101549.56;4950652;29;20031;-78
2023/07/14 06:08:45;;;;;;;8.13;4.90;;;;;;;16.44;91.85;101546.91;4950148;29;20039;-80
2023/07/14 06:11:10;;;;;;;7.15;4.30;;;;;;;16.44;90.74;101554.88;4937123;29;20660;-77
2023/07/14 06:13:39;;;;;;;8.10;4.72;;;;;;;16.50;91.92;101562.31;4922190;29;20027;-78
2023/07/14 06:16:05;;;;;;;6.40;4.68;;;;;;;16.51;91.39;101556.88;4951484;29;20034;-78
2023/07/14 06:18:32;;;;;;;8.25;4.72;;;;;;;16.63;90.92;101551.44;4950720;29;20039;-73
2023/07/14 06:20:58;;;;;;;10.30;4.65;;;;;;;16.64;90.76;101555.78;4933121;29;20031;-75
2023/07/14 06:23:26;;;;;;;7.97;4.72;;;;;;;16.68;90.37;101552.75;4951626;29;20073;-79
2023/07/14 06:25:52;;;;;;;9.13;5.18;;;;;;;16.75;90.22;101551.22;4950229;29;20463;-78
2023/07/14 06:28:17;;;;;;;6.63;4.70;;;;;;;16.79;90.13;101555.28;4948886;29;20113;-78
2023/07/14 06:30:43;;;;;;;5.88;4.75;;;;;;;16.85;90.19;101549.44;4950429;29;20480;-79
2023/07/14 06:33:09;;;;;;;7.30;5.10;;;;;;;16.91;89.74;101553.38;4949919;29;20036;-78
2023/07/14 06:35:34;;;;;;;8.05;4.68;;;;;;;17.03;90.18;101554.09;4949632;29;20028;-78
2023/07/14 06:38:03;;;;;;;10.18;4.93;;;;;;;17.16;89.33;101552.00;4950453;29;20138;-77
2023/07/14 06:40:29;;;;;;;7.55;4.72;;;;;;;17.16;88.83;101547.50;4949357;29;20023;-77
2023/07/14 06:42:55;;;;;;;7.65;4.53;;;;;;;17.18;88.26;101539.38;4952096;28;20471;-77
2023/07/14 06:45:21;;;;;;;5.38;4.32;;;;;;;17.26;87.73;101539.56;4947857;29;20055;-77
2023/07/14 06:47:46;;;;;;;8.30;4.70;;;;;;;17.36;86.70;101540.41;4952262;29;20118;-76
2023/07/14 06:50:12;;;;;;;10.02;4.80;;;;;;;17.47;85.67;101540.25;4938801;29;20152;-75
2023/07/14 06:52:39;;;;;;;7.57;4.53;;;;;;;17.59;83.66;101540.06;4955578;29;20439;-76
2023/07/14 06:55:06;;;;;;;5.68;4.15;;;;;;;17.74;84.30;101542.22;4954353;29;20424;-76
2023/07/14 06:57:32;;;;;;;5.97;4.10;;;;;;;17.73;81.24;101524.56;4955096;29;20027;-80
2023/07/14 06:59:57;;;;;;;7.97;4.10;;;;;;;17.82;81.04;101522.84;4953096;29;20113;-80
2023/07/14 07:02:23;;;;;;;5.20;3.83;;;;;;;17.93;82.74;101514.69;4952660;29;20143;-80
2023/07/14 07:04:50;;;;;;;7.53;4.32;;;;;;;17.99;80.71;101523.91;4954546;29;20026;-80
2023/07/14 07:07:16;;;;;;;6.63;3.92;;;;;;;18.07;80.15;101519.56;4937984;29;20031;-79
2023/07/14 07:09:42;;;;;;;7.60;4.00;;;;;;;18.10;80.40;101521.09;4947354;29;20473;-78
2023/07/14 07:12:10;;;;;;;6.32;3.42;;;;;;;18.03;75.81;101526.19;4935885;29;20063;-78
2023/07/14 07:14:36;;;;;;;7.97;3.47;;;;;;;18.03;77.28;101522.66;4934708;29;20039;-77
2023/07/14 07:17:02;;;;;;;6.65;3.58;;;;;;;18.05;78.39;101518.03;4934813;29;20483;-78
2023/07/14 07:19:28;;;;;;;6.07;3.65;;;;;;;17.97;77.34;101517.91;4935372;29;20035;-79
2023/07/14 07:21:55;;;;;;;7.57;3.67;;;;;;;17.94;75.91;101513.69;4935513;29;20031;-78
2023/07/14 07:24:20;;;;;;;6.97;3.95;;;;;;;17.97;75.61;101510.75;4917033;29;20648;-74
2023/07/14 07:26:46;;;;;;;6.65;3.28;;;;;;;18.08;75.79;101509.75;4931920;29;20034;-78
2023/07/14 07:29:11;;;;;;;5.93;3.65;;;;;;;18.10;77.05;101508.63;4933866;29;20031;-78
2023/07/14 07:31:40;;;;;;;9.15;3.70;;;;;;;18.17;76.72;101507.03;4933898;29;20035;-78
2023/07/14 07:34:05;;;;;;;5.45;3.60;;;;;;;18.06;77.59;101503.72;4927427;29;20032;-78
2023/07/14 07:36:31;;;;;;;6.40;3.30;;;;;;;18.13;77.29;101511.00;4922829;29;20036;-78
2023/07/14 07:38:56;;;;;;;7.45;3.55;;;;;;;18.15;76.38;101503.69;4913515;29;20038;-78
2023/07/14 07:41:24;;;;;;;7.82;3.30;;;;;;;18.29;76.16;101509.50;4933549;29;20107;-74
2023/07/14 07:43:50;;;;;;;6.75;3.15;;;;;;;18.28;75.87;101507.84;4930370;29;20544;-78
2023/07/14 07:46:17;;;;;;;4.78;3.15;;;;;;;18.29;74.19;101504.19;4934522;29;20038;-78
2023/07/14 07:48:44;;;;;;;7.13;3.10;;;;;;;18.44;75.18;101513.38;4934242;29;20495;-78
2023/07/14 07:51:10;;;;;;;4.70;3.00;;;;;;;18.54;74.26;101506.16;4916519;29;20122;-78
2023/07/14 07:53:35;;;;;;;5.97;3.30;;;;;;;18.55;72.90;101509.69;4934333;29;20053;-78
2023/07/14 07:56:01;;;;;;;6.38;3.10;;;;;;;18.61;73.23;101504.56;4932940;29;20046;-78
2023/07/14 07:58:27;;;;;;;5.13;3.45;;;;;;;18.66;70.98;101505.00;4948162;29;20055;-78
2023/07/14 08:00:59;;;;;;;4.82;3.20;;;;;;;18.71;71.57;101500.06;4953723;29;20043;-78
2023/07/14 08:03:25;;;;;;;7.35;2.90;;;;;;;18.73;70.28;101489.22;4952073;29;20495;-78
2023/07/14 08:05:54;;;;;;;4.90;2.83;;;;;;;18.82;71.30;101493.69;4953525;29;20035;-78
2023/07/14 08:08:22;;;;;;;7.47;3.00;;;;;;;18.89;71.02;101491.25;4952637;29;20023;-75
2023/07/14 08:10:47;;;;;;;5.95;3.05;;;;;;;18.93;70.61;101476.63;4961473;28;20111;-77
2023/07/14 08:13:15;;;;;;;4.95;2.85;;;;;;;18.87;68.40;101493.22;4972668;28;20019;-79
2023/07/14 08:15:40;;;;;;;3.88;2.55;;;;;;;18.79;69.93;101492.13;4965450;28;20045;-78
2023/07/14 08:18:07;;;;;;;9.77;3.08;;;;;;;18.79;70.35;101486.81;4952676;29;20019;-78
2023/07/14 08:20:37;;;;;;;5.95;2.70;;;;;;;18.92;70.43;101480.28;4962158;28;20027;-78
2023/07/14 08:23:08;;;;;;;8.80;2.67;;;;;;;18.94;69.68;101483.63;4971177;28;20023;-78
2023/07/14 08:25:34;;;;;;;6.13;2.87;;;;;;;19.04;69.79;101479.03;4973202;28;20023;-79
2023/07/14 08:28:01;;;;;;;9.07;2.80;;;;;;;19.04;67.45;101481.72;4972168;28;20394;-78
2023/07/14 08:30:29;;;;;;;6.18;2.78;;;;;;;19.01;66.77;101490.88;4972022;28;20113;-78
2023/07/14 08:32:54;;;;;;;5.72;2.33;;;;;;;19.11;67.00;101477.44;4961533;28;20034;-79
2023/07/14 08:35:20;;;;;;;4.22;2.30;;;;;;;19.15;66.80;101476.13;4972411;28;20019;-79
2023/07/14 08:37:47;;;;;;;7.82;2.65;;;;;;;19.33;66.68;101479.63;4970726;28;20051;-79
2023/07/14 08:40:16;;;;;;;4.57;2.65;;;;;;;19.38;64.86;101481.84;4959838;28;20067;-78
2023/07/14 08:43:06;;;;;;;4.13;2.40;;;;;;;19.87;66.83;101483.03;4937450;28;20030;-79
2023/07/14 08:45:42;;;;;;;4.63;2.30;;;;;;;20.29;64.30;101477.72;4953318;28;20031;-79
2023/07/14 08:48:17;;;;;;;6.57;3.05;;;;;;;20.53;60.84;101474.34;4965425;28;20034;-79
2023/07/14 08:50:49;;;;;;;6.05;2.75;;;;;;;20.84;61.69;101477.25;4962529;28;20023;-79
2023/07/14 08:53:21;;;;;;;5.57;2.60;;;;;;;21.22;60.76;101469.59;4972628;28;20027;-79
2023/07/14 08:55:47;;;;;;;4.50;2.35;;;;;;;21.53;55.84;101467.06;4965663;28;20026;-78
2023/07/14 08:58:18;;;;;;;5.18;2.38;;;;;;;21.58;56.72;101464.72;4953915;28;20035;-79
2023/07/14 09:01:18;;;;;;;4.03;2.15;;;;;;;21.76;59.66;101462.69;4970357;28;20026;-79
2023/07/14 09:03:48;;;;;;;4.13;2.45;;;;;;;21.97;55.88;101455.91;4956450;28;20468;-79
2023/07/14 09:06:17;;;;;;;5.38;2.53;;;;;;;21.87;55.93;101453.44;4969168;28;20078;-79
2023/07/14 09:08:44;;;;;;;4.70;2.47;;;;;;;22.08;56.76;101456.41;4959756;28;20031;-79
2023/07/14 09:11:37;;;;;;;4.35;2.20;;;;;;;22.39;57.29;101464.47;4948775;28;20100;-79
2023/07/14 09:14:50;;;;;;;4.65;2.53;;;;;;;22.58;58.49;101451.63;4972296;28;20074;-79
2023/07/14 09:17:39;;;;;;;5.03;2.70;;;;;;;23.19;56.27;101436.44;4971729;28;20042;-74
2023/07/14 09:20:24;;;;;;;6.72;2.35;;;;;;;23.04;54.05;101441.78;4966053;28;20026;-79
2023/07/14 09:22:56;;;;;;;6.10;2.80;;;;;;;22.68;54.87;101442.34;4959891;28;20033;-79
2023/07/14 09:25:32;;;;;;;5.63;2.13;;;;;;;22.80;55.20;101435.56;4971487;28;20026;-75
2023/07/14 09:27:58;;;;;;;4.28;2.28;;;;;;;22.86;54.36;101427.84;4966771;28;20035;-79
2023/07/14 09:30:26;;;;;;;5.38;2.60;;;;;;;22.95;53.70;101432.13;4967445;28;20110;-73
2023/07/14 09:32:58;;;;;;;4.72;2.40;;;;;;;22.85;53.39;101432.38;4971465;28;20031;-74
2023/07/14 09:35:25;;;;;;;4.35;2.50;;;;;;;22.88;54.06;101426.66;4971092;28;20379;-79
2023/07/14 09:38:00;;;;;;;4.40;2.42;;;;;;;22.86;54.89;101422.47;4970595;28;20510;-81
2023/07/14 09:40:30;;;;;;;5.05;2.67;;;;;;;22.91;54.48;101426.28;4970022;28;20113;-79
2023/07/14 09:42:58;;;;;;;4.07;2.40;;;;;;;23.13;53.96;101425.41;4952995;28;20026;-74
2023/07/14 09:45:28;;;;;;;4.95;2.80;;;;;;;23.26;53.13;101413.25;4971096;28;20053;-80
2023/07/14 09:48:06;;;;;;;6.65;2.55;;;;;;;23.50;54.45;101410.28;4952345;28;20383;-81
2023/07/14 09:50:38;;;;;;;7.20;2.58;;;;;;;23.72;53.10;101409.41;4959734;28;20027;-81
2023/07/14 09:53:05;;;;;;;4.80;2.75;;;;;;;23.92;51.90;101404.28;4970755;28;20014;-74
2023/07/14 09:56:05;;;;;;;4.03;2.33;;;;;;;23.84;52.60;101406.25;4961197;28;20098;-76
2023/07/14 09:58:32;;;;;;;4.97;2.63;;;;;;;23.62;51.21;101403.50;4948221;28;20027;-82
2023/07/14 10:01:04;;;;;;;3.33;2.20;;;;;;;23.64;52.83;101395.25;4969198;28;20117;-81
2023/07/14 10:03:36;;;;;;;4.97;2.53;;;;;;;23.62;52.71;101403.50;4960452;28;20884;-81
2023/07/14 10:06:11;;;;;;;;;;;;;;;23.99;55.44;101393.59;4970558;28;20111;-83
2023/07/14 10:08:49;;;;;;;5.32;2.40;;;;;;;23.81;52.81;101385.13;4968104;28;20005;-81
2023/07/14 10:11:27;;;;;;;6.35;2.50;;;;;;;23.48;52.85;101379.25;4969707;28;20708;-76
2023/07/14 10:14:00;;;;;;;5.93;2.50;;;;;;;23.07;53.50;101361.72;4969577;28;20146;-81
2023/07/14 10:16:27;;;;;;;4.95;2.40;;;;;;;23.03;53.29;101365.78;4953662;28;20023;-82
2023/07/14 10:19:24;;;;;;;5.20;2.60;;;;;;;22.75;54.54;101361.97;4969561;28;20034;-82
2023/07/14 10:21:57;;;;;;;3.63;2.40;;;;;;;23.03;54.24;101365.78;4934130;28;20533;-81
2023/07/14 10:24:23;;;;;;;;;;;;;;;23.37;56.02;101353.69;4945758;28;20411;-81
2023/07/14 10:26:52;;;;;;;5.45;2.33;;;;;;;23.74;53.08;101348.25;4963902;28;19913;-81
2023/07/14 10:29:20;;;;;;;7.57;2.80;;;;;;;23.90;51.53;101347.19;4962358;28;20027;-81
2023/07/14 10:32:09;;;;;;;4.38;2.78;;;;;;;24.23;52.74;101335.97;4970671;28;20023;-80
2023/07/14 10:34:53;;;;;;;9.10;3.03;;;;;;;24.48;52.37;101333.78;4948658;29;20484;-82
2023/07/14 10:37:24;;;;;;;3.95;2.30;;;;;;;24.60;50.73;101333.06;4950382;28;20087;-82
2023/07/14 10:39:58;;;;;;;4.38;2.15;;;;;;;24.76;49.10;101321.19;4933376;29;20107;-81
2023/07/14 10:42:30;;;;;;;4.95;2.15;;;;;;;24.80;49.09;101325.16;4947478;28;20007;-75
2023/07/14 10:44:57;;;;;;;4.22;2.15;;;;;;;25.09;47.77;101313.38;4952610;28;20093;-81
2023/07/14 10:47:31;;;;;;;4.22;1.98;;;;;;;25.17;46.21;101313.22;4971524;28;20027;-81
2023/07/14 10:50:20;;;;;;;5.25;2.38;;;;;;;24.89;48.07;101313.22;4972628;28;20058;-81
2023/07/14 10:53:31;;;;;;;4.18;2.40;;;;;;;24.84;49.32;101307.59;4973159;28;20035;-75
2023/07/14 10:56:02;;;;;;;4.10;2.10;;;;;;;24.70;47.88;101308.50;4947613;28;20515;-81
2023/07/14 10:58:52;;;;;;;3.75;2.00;;;;;;;24.59;49.30;101303.66;4953820;28;20094;-76
2023/07/14 11:01:36;;;;;;;4.20;2.28;;;;;;;24.29;49.28;101313.72;4944647;28;20031;-81
2023/07/14 11:04:13;;;;;;;6.35;2.13;;;;;;;24.00;49.91;101306.56;4971039;28;20454;-80
2023/07/14 11:06:43;;;;;;;6.93;2.30;;;;;;;23.79;49.32;101296.63;4970867;28;20023;-75
2023/07/14 11:09:11;;;;;;;6.40;2.50;;;;;;;23.98;49.46;101295.16;4971426;28;20026;-81
2023/07/14 11:12:03;;;;;;;5.57;2.42;;;;;;;24.19;50.08;101292.50;4953555;28;20408;-81
2023/07/14 11:14:51;;;;;;;4.85;2.35;;;;;;;24.12;48.36;101285.41;4950060;28;20490;-81
2023/07/14 11:17:35;;;;;;;6.15;2.42;;;;;;;24.27;49.10;101251.19;4925085;29;20047;-81
2023/07/14 11:20:12;;;;;;;6.07;2.55;;;;;;;24.06;49.37;101257.44;4923829;29;20485;-81
2023/07/14 11:23:00;;;;;;;4.15;2.30;;;;;;;24.16;49.77;101263.31;4932851;29;20064;-81
2023/07/14 11:25:34;;;;;;;3.90;2.10;;;;;;;24.15;49.01;101253.59;4913509;29;20035;-80
2023/07/14 11:28:11;;;;;;;4.57;2.20;;;;;;;24.28;49.85;101258.28;4936959;29;20102;-81
2023/07/14 11:30:46;;;;;;;4.15;2.20;;;;;;;24.75;49.14;101254.09;4956221;28;20079;-80
2023/07/14 11:33:20;;;;;;;6.45;2.33;;;;;;;24.70;48.03;101260.06;4955954;28;20488;-80